createdAt,value
2017-09-25T00:00:12.795Z,12.51
2017-09-25T00:02:41.150Z,12.53
2017-09-25T00:05:09.491Z,12.57
2017-09-25T00:07:37.835Z,12.42
2017-09-25T00:10:06.182Z,12.44
2017-09-25T00:12:34.559Z,12.37
2017-09-25T00:15:03.063Z,12.41
2017-09-25T00:17:31.530Z,12.30
2017-09-25T00:19:59.879Z,12.37
2017-09-25T00:22:28.227Z,12.39
2017-09-25T00:24:56.602Z,12.27
2017-09-25T00:27:24.954Z,12.50
2017-09-25T00:29:53.302Z,12.36
2017-09-25T00:32:21.674Z,12.35
2017-09-25T00:34:50.028Z,12.35
2017-09-25T00:37:18.378Z,12.43
2017-09-25T00:39:46.774Z,12.27
2017-09-25T00:42:15.123Z,12.20
2017-09-25T00:44:43.474Z,12.21
2017-09-25T00:47:11.863Z,12.36
2017-09-25T00:49:40.211Z,12.24
2017-09-25T00:52:08.565Z,12.22
2017-09-25T00:54:36.915Z,12.37
2017-09-25T00:57:05.291Z,12.30
2017-09-25T00:59:33.643Z,12.35
2017-09-25T01:02:13.723Z,12.48
2017-09-25T01:04:53.590Z,12.34
2017-09-25T01:07:21.947Z,12.35
2017-09-25T01:09:50.286Z,12.48
2017-09-25T01:12:18.634Z,12.41
2017-09-25T01:14:46.984Z,12.52
2017-09-25T01:17:15.453Z,12.42
2017-09-25T01:19:43.807Z,12.49
2017-09-25T01:22:12.159Z,12.42
2017-09-25T01:24:40.530Z,12.48
2017-09-25T01:27:08.874Z,12.41
2017-09-25T01:29:37.250Z,12.35
2017-09-25T01:32:05.608Z,12.36
2017-09-25T01:34:33.965Z,12.39
2017-09-25T01:37:02.303Z,12.36
2017-09-25T01:39:30.647Z,12.31
2017-09-25T01:41:59.014Z,12.29
2017-09-25T01:44:27.350Z,12.28
2017-09-25T01:46:55.691Z,12.26
2017-09-25T01:49:24.029Z,12.28
2017-09-25T01:51:52.375Z,12.27
2017-09-25T01:54:20.718Z,12.33
2017-09-25T01:56:49.094Z,12.27
2017-09-25T01:59:17.471Z,12.20
2017-09-25T02:01:45.813Z,12.19
2017-09-25T02:04:14.598Z,12.22
2017-09-25T02:06:42.967Z,12.16
2017-09-25T02:09:11.308Z,12.14
2017-09-25T02:11:39.711Z,12.24
2017-09-25T02:14:08.034Z,12.11
2017-09-25T02:16:36.381Z,12.11
2017-09-25T02:19:04.842Z,12.04
2017-09-25T02:21:33.190Z,12.03
2017-09-25T02:24:01.533Z,12.16
2017-09-25T02:26:29.878Z,12.16
2017-09-25T02:28:58.246Z,12.26
2017-09-25T02:31:26.620Z,12.09
2017-09-25T02:33:55.001Z,12.17
2017-09-25T02:36:23.346Z,12.19
2017-09-25T02:38:51.818Z,12.13
2017-09-25T02:41:20.163Z,12.05
2017-09-25T02:43:48.507Z,11.99
2017-09-25T02:46:16.850Z,12.07
2017-09-25T02:48:45.210Z,11.91
2017-09-25T02:51:13.558Z,11.99
2017-09-25T02:53:41.926Z,11.97
2017-09-25T02:56:10.269Z,12.00
2017-09-25T02:58:38.645Z,12.04
2017-09-25T03:01:07.007Z,12.06
2017-09-25T03:03:35.355Z,12.05
2017-09-25T03:06:04.400Z,12.03
2017-09-25T03:08:32.752Z,11.99
2017-09-25T03:11:01.133Z,12.01
2017-09-25T03:13:30.394Z,11.98
2017-09-25T03:15:58.792Z,11.81
2017-09-25T03:18:27.131Z,11.82
2017-09-25T03:20:55.499Z,11.79
2017-09-25T03:23:24.055Z,11.93
2017-09-25T03:25:53.307Z,11.87
2017-09-25T03:28:22.701Z,11.82
2017-09-25T03:30:51.053Z,11.74
2017-09-25T03:33:19.422Z,11.79
2017-09-25T03:35:47.771Z,11.87
2017-09-25T03:38:16.127Z,11.90
2017-09-25T03:40:44.508Z,11.74
2017-09-25T03:43:12.872Z,11.88
2017-09-25T03:45:41.239Z,11.78
2017-09-25T03:48:10.188Z,11.76
2017-09-25T03:50:38.575Z,11.70
2017-09-25T03:53:06.935Z,11.79
2017-09-25T03:55:35.322Z,11.75
2017-09-25T03:58:03.679Z,11.70
2017-09-25T04:00:32.029Z,11.66
2017-09-25T04:03:00.381Z,11.68
2017-09-25T04:05:28.726Z,11.87
2017-09-25T04:07:57.127Z,11.72
2017-09-25T04:10:25.492Z,11.83
2017-09-25T04:12:53.850Z,11.91
2017-09-25T04:15:22.235Z,12.03
2017-09-25T04:17:50.624Z,12.02
2017-09-25T04:20:18.985Z,12.02
2017-09-25T04:22:47.372Z,11.88
2017-09-25T04:25:16.250Z,11.97
2017-09-25T04:27:44.603Z,12.03
2017-09-25T04:30:12.980Z,12.03
2017-09-25T04:32:41.332Z,11.81
2017-09-25T04:35:09.704Z,11.95
2017-09-25T04:37:38.106Z,11.82
2017-09-25T04:40:06.466Z,12.01
2017-09-25T04:42:36.735Z,11.92
2017-09-25T04:45:05.085Z,11.95
2017-09-25T04:47:33.448Z,11.89
2017-09-25T04:50:01.788Z,11.85
2017-09-25T04:52:30.149Z,11.71
2017-09-25T04:54:58.503Z,11.66
2017-09-25T04:57:26.978Z,11.74
2017-09-25T04:59:55.343Z,11.91
2017-09-25T05:02:23.691Z,11.98
2017-09-25T05:04:52.051Z,11.92
2017-09-25T05:07:20.391Z,12.03
2017-09-25T05:09:48.738Z,12.06
2017-09-25T05:12:17.103Z,12.03
2017-09-25T05:14:45.465Z,11.95
2017-09-25T05:17:13.812Z,11.94
2017-09-25T05:19:42.167Z,11.96
2017-09-25T05:22:10.551Z,11.78
2017-09-25T05:24:38.935Z,11.93
2017-09-25T05:27:07.365Z,11.93
2017-09-25T05:29:35.737Z,11.95
2017-09-25T05:32:04.080Z,11.95
2017-09-25T05:34:32.458Z,11.92
2017-09-25T05:37:00.839Z,12.01
2017-09-25T05:39:29.189Z,11.93
2017-09-25T05:41:57.559Z,11.89
2017-09-25T05:44:25.931Z,12.06
2017-09-25T05:46:54.311Z,12.01
2017-09-25T05:49:22.935Z,11.95
2017-09-25T05:51:51.389Z,12.06
2017-09-25T05:54:19.752Z,11.71
2017-09-25T05:56:48.103Z,11.73
2017-09-25T05:59:16.474Z,11.91
2017-09-25T06:01:46.752Z,11.72
2017-09-25T06:04:15.098Z,11.93
2017-09-25T06:06:43.489Z,11.98
2017-09-25T06:09:11.844Z,12.11
2017-09-25T06:11:40.218Z,11.99
2017-09-25T06:14:08.574Z,12.02
2017-09-25T06:16:37.074Z,12.12
2017-09-25T06:19:05.424Z,12.05
2017-09-25T06:21:33.809Z,12.06
2017-09-25T06:24:02.552Z,12.12
2017-09-25T06:26:30.922Z,12.26
2017-09-25T06:28:59.350Z,12.33
2017-09-25T06:31:27.732Z,12.21
2017-09-25T06:33:56.108Z,12.32
2017-09-25T06:36:24.504Z,12.24
2017-09-25T06:38:52.867Z,12.38
2017-09-25T06:41:21.235Z,12.38
2017-09-25T06:43:49.617Z,12.31
2017-09-25T06:46:17.995Z,12.13
2017-09-25T06:48:46.368Z,12.24
2017-09-25T06:51:14.723Z,12.49
2017-09-25T06:53:43.082Z,12.43
2017-09-25T06:56:11.445Z,12.42
2017-09-25T06:58:41.733Z,12.51
2017-09-25T07:01:10.087Z,12.64
2017-09-25T07:03:38.462Z,12.60
2017-09-25T07:06:06.805Z,12.67
2017-09-25T07:08:35.210Z,12.68
2017-09-25T07:11:04.455Z,12.64
2017-09-25T07:13:32.811Z,12.57
2017-09-25T07:16:01.167Z,12.59
2017-09-25T07:18:29.529Z,12.67
2017-09-25T07:20:59.787Z,12.74
2017-09-25T07:23:28.148Z,12.77
2017-09-25T07:25:56.510Z,12.82
2017-09-25T07:28:24.880Z,12.70
2017-09-25T07:30:53.298Z,13.00
2017-09-25T07:33:21.672Z,12.98
2017-09-25T07:35:50.007Z,13.12
2017-09-25T07:38:18.366Z,13.24
2017-09-25T07:40:47.615Z,12.98
2017-09-25T07:43:15.964Z,13.15
2017-09-25T07:45:44.335Z,13.01
2017-09-25T07:48:12.930Z,13.17
2017-09-25T07:50:41.548Z,13.16
2017-09-25T07:53:23.518Z,13.22
2017-09-25T07:55:52.013Z,13.31
2017-09-25T07:58:21.303Z,13.18
2017-09-25T08:00:49.656Z,13.22
2017-09-25T08:03:18.034Z,13.14
2017-09-25T08:05:46.415Z,13.15
2017-09-25T08:08:14.813Z,13.23
2017-09-25T08:10:43.171Z,13.34
2017-09-25T08:13:11.529Z,13.42
2017-09-25T08:15:40.800Z,13.47
2017-09-25T08:18:09.165Z,13.50
2017-09-25T08:20:37.527Z,13.47
2017-09-25T08:23:05.883Z,13.35
2017-09-25T08:25:34.254Z,13.41
2017-09-25T08:28:02.845Z,13.39
2017-09-25T08:30:31.351Z,13.45
2017-09-25T08:32:59.705Z,13.43
2017-09-25T08:35:28.057Z,13.47
2017-09-25T08:37:56.415Z,13.77
2017-09-25T08:40:24.812Z,14.06
2017-09-25T08:42:53.179Z,14.24
2017-09-25T08:45:21.578Z,14.24
2017-09-25T08:47:49.942Z,14.20
2017-09-25T08:50:18.308Z,14.06
2017-09-25T08:52:46.666Z,14.02
2017-09-25T08:55:15.025Z,14.05
2017-09-25T08:57:43.409Z,13.75
2017-09-25T09:00:11.819Z,13.56
2017-09-25T09:02:40.183Z,13.75
2017-09-25T09:05:08.598Z,13.88
2017-09-25T09:07:37.015Z,13.95
2017-09-25T09:10:05.374Z,13.58
2017-09-25T09:12:33.753Z,13.60
2017-09-25T09:15:02.107Z,13.66
2017-09-25T09:17:30.467Z,13.61
2017-09-25T09:19:58.872Z,13.80
2017-09-25T09:22:27.226Z,14.18
2017-09-25T09:24:55.605Z,14.24
2017-09-25T09:27:23.974Z,14.33
2017-09-25T09:29:52.329Z,14.11
2017-09-25T09:32:20.675Z,14.39
2017-09-25T09:34:49.039Z,14.67
2017-09-25T09:37:26.208Z,14.98
2017-09-25T09:39:54.621Z,15.83
2017-09-25T09:42:22.979Z,17.26
2017-09-25T09:44:51.360Z,18.02
2017-09-25T09:47:19.724Z,19.64
2017-09-25T09:49:48.072Z,20.75
2017-09-25T09:52:16.478Z,20.73
2017-09-25T09:54:44.831Z,20.44
2017-09-25T09:57:24.956Z,20.42
2017-09-25T09:59:53.351Z,20.18
2017-09-25T10:02:21.729Z,19.22
2017-09-25T10:04:50.108Z,18.51
2017-09-25T10:07:18.499Z,18.00
2017-09-25T10:09:46.860Z,17.73
2017-09-25T10:12:15.248Z,17.47
2017-09-25T10:14:43.606Z,17.35
2017-09-25T10:17:11.998Z,17.74
2017-09-25T10:19:42.383Z,17.40
2017-09-25T10:22:10.758Z,17.02
2017-09-25T10:24:39.119Z,16.79
2017-09-25T10:27:12.346Z,16.80
2017-09-25T10:29:40.694Z,16.49
2017-09-25T10:32:09.987Z,16.11
2017-09-25T10:34:38.351Z,16.00
2017-09-25T10:37:06.736Z,15.83
2017-09-25T10:39:35.120Z,15.75
2017-09-25T10:42:03.476Z,15.64
2017-09-25T10:44:35.659Z,16.13
2017-09-25T10:47:04.032Z,16.16
2017-09-25T10:49:32.406Z,16.03
2017-09-25T10:52:00.785Z,16.00
2017-09-25T10:54:29.270Z,15.97
2017-09-25T10:56:57.620Z,15.78
2017-09-25T10:59:25.979Z,15.29
2017-09-25T11:01:54.380Z,15.79
2017-09-25T11:04:22.743Z,15.99
2017-09-25T11:06:51.139Z,15.95
2017-09-25T11:09:19.503Z,16.25
2017-09-25T11:11:47.883Z,16.56
2017-09-25T11:14:16.249Z,16.44
2017-09-25T11:16:44.618Z,16.00
2017-09-25T11:19:13.106Z,16.11
2017-09-25T11:21:41.463Z,16.14
2017-09-25T11:24:09.909Z,16.18
2017-09-25T11:26:38.291Z,15.93
2017-09-25T11:29:06.664Z,15.57
2017-09-25T11:31:35.038Z,15.35
2017-09-25T11:34:03.419Z,15.42
2017-09-25T11:36:31.781Z,15.17
2017-09-25T11:39:00.175Z,15.20
2017-09-25T11:41:28.532Z,15.27
2017-09-25T11:43:56.943Z,15.39
2017-09-25T11:46:25.321Z,15.57
2017-09-25T11:48:53.736Z,15.48
2017-09-25T11:51:22.082Z,15.41
2017-09-25T11:53:50.440Z,15.17
2017-09-25T11:56:18.863Z,15.31
2017-09-25T11:58:47.244Z,15.05
2017-09-25T12:01:15.642Z,15.12
2017-09-25T12:03:48.904Z,15.00
2017-09-25T12:06:17.254Z,15.02
2017-09-25T12:08:45.619Z,15.14
2017-09-25T12:11:14.118Z,15.28
2017-09-25T12:13:42.477Z,15.16
2017-09-25T12:16:10.847Z,15.35
2017-09-25T12:18:39.233Z,15.41
2017-09-25T12:21:07.581Z,15.63
2017-09-25T12:23:35.954Z,15.63
2017-09-25T12:26:04.318Z,15.68
2017-09-25T12:28:32.683Z,15.66
2017-09-25T12:31:01.111Z,15.50
2017-09-25T12:33:29.550Z,15.36
2017-09-25T12:35:57.907Z,15.21
2017-09-25T12:38:26.260Z,15.24
2017-09-25T12:40:54.619Z,15.13
2017-09-25T12:43:23.023Z,15.33
2017-09-25T12:45:51.399Z,15.26
2017-09-25T12:48:19.752Z,15.47
2017-09-25T12:50:49.107Z,15.62
2017-09-25T12:53:17.483Z,15.40
2017-09-25T12:55:46.062Z,14.90
2017-09-25T12:58:14.428Z,14.92
2017-09-25T13:00:42.868Z,14.93
2017-09-25T13:03:11.231Z,14.97
2017-09-25T13:05:39.607Z,15.08
2017-09-25T13:08:08.007Z,15.18
2017-09-25T13:10:36.371Z,15.42
2017-09-25T13:13:04.731Z,15.28
2017-09-25T13:15:33.118Z,15.00
2017-09-25T13:18:01.471Z,14.79
2017-09-25T13:20:30.005Z,14.56
2017-09-25T13:22:58.366Z,14.55
2017-09-25T13:25:26.722Z,14.48
2017-09-25T13:27:55.097Z,14.46
2017-09-25T13:30:23.468Z,14.42
2017-09-25T13:32:51.959Z,14.60
2017-09-25T13:35:20.340Z,14.72
2017-09-25T13:37:48.709Z,15.05
2017-09-25T13:40:17.197Z,15.23
2017-09-25T13:42:45.647Z,15.51
2017-09-25T13:45:13.995Z,15.58
2017-09-25T13:47:42.372Z,15.25
2017-09-25T13:50:10.737Z,15.24
2017-09-25T13:52:39.124Z,14.98
2017-09-25T13:55:07.522Z,14.85
2017-09-25T13:57:35.880Z,15.07
2017-09-25T14:02:37.884Z,15.55
2017-09-25T14:05:06.247Z,15.23
2017-09-25T14:07:34.615Z,15.55
2017-09-25T14:10:02.984Z,15.59
2017-09-25T14:12:31.384Z,15.38
2017-09-25T14:14:59.735Z,15.62
2017-09-25T14:17:28.101Z,15.67
2017-09-25T14:19:56.483Z,15.22
2017-09-25T14:22:25.208Z,15.41
2017-09-25T14:24:53.571Z,15.63
2017-09-25T14:27:21.941Z,15.45
2017-09-25T14:29:50.319Z,15.34
2017-09-25T14:32:18.675Z,15.26
2017-09-25T14:34:47.031Z,15.23
2017-09-25T14:37:15.394Z,15.16
2017-09-25T14:39:43.760Z,15.18
2017-09-25T14:42:12.114Z,15.23
2017-09-25T14:44:40.519Z,15.40
2017-09-25T14:47:08.879Z,15.42
2017-09-25T14:49:37.258Z,15.55
2017-09-25T14:52:05.808Z,15.63
2017-09-25T14:54:34.204Z,15.41
2017-09-25T14:57:07.287Z,15.56
2017-09-25T14:59:39.961Z,15.26
2017-09-25T15:02:08.358Z,15.32
2017-09-25T15:04:36.719Z,15.44
2017-09-25T15:07:05.080Z,15.30
2017-09-25T15:09:33.467Z,15.36
2017-09-25T15:12:01.935Z,15.31
2017-09-25T15:14:30.300Z,15.27
2017-09-25T15:16:58.668Z,15.31
2017-09-25T15:19:27.026Z,15.36
2017-09-25T15:21:55.374Z,15.27
2017-09-25T15:24:23.900Z,15.31
2017-09-25T15:26:52.520Z,15.09
2017-09-25T15:29:20.907Z,15.26
2017-09-25T15:31:49.399Z,15.27
2017-09-25T15:34:17.789Z,15.12
2017-09-25T15:36:46.147Z,14.99
2017-09-25T15:39:14.507Z,14.95
2017-09-25T15:41:42.872Z,14.93
2017-09-25T15:44:11.252Z,14.93
2017-09-25T15:46:39.634Z,14.85
2017-09-25T15:49:08.014Z,14.92
2017-09-25T15:51:43.574Z,14.93
2017-09-25T15:54:11.978Z,14.75
2017-09-25T15:56:41.569Z,14.71
2017-09-25T15:59:10.060Z,14.77
2017-09-25T16:01:38.420Z,14.78
2017-09-25T16:04:06.958Z,14.63
2017-09-25T16:06:35.303Z,14.78
2017-09-25T16:09:04.608Z,14.59
2017-09-25T16:14:30.341Z,14.44
2017-09-25T16:16:59.670Z,14.63
2017-09-25T16:19:28.034Z,14.60
2017-09-25T16:21:56.438Z,14.45
2017-09-25T16:24:24.847Z,14.42
2017-09-25T16:26:53.301Z,14.18
2017-09-25T16:29:21.675Z,14.34
2017-09-25T16:31:50.047Z,14.47
2017-09-25T16:34:18.415Z,14.61
2017-09-25T16:36:46.803Z,14.36
2017-09-25T16:39:15.159Z,14.31
2017-09-25T16:41:43.564Z,14.46
2017-09-25T16:44:11.927Z,14.48
2017-09-25T16:46:40.337Z,14.29
2017-09-25T16:49:08.706Z,14.26
2017-09-25T16:51:37.990Z,14.20
2017-09-25T16:54:06.383Z,14.31
2017-09-25T16:56:34.737Z,14.21
2017-09-25T16:59:03.131Z,13.97
2017-09-25T17:01:31.527Z,13.76
2017-09-25T17:03:59.903Z,13.57
2017-09-25T17:06:28.382Z,13.43
2017-09-25T17:08:56.750Z,13.36
2017-09-25T17:11:25.107Z,13.28
2017-09-25T17:13:53.479Z,13.21
2017-09-25T17:16:21.963Z,13.14
2017-09-25T17:18:50.765Z,13.14
2017-09-25T17:21:19.549Z,13.02
2017-09-25T17:23:48.298Z,12.97
2017-09-25T17:26:17.027Z,12.95
2017-09-25T17:28:45.454Z,12.99
2017-09-25T17:31:13.812Z,13.03
2017-09-25T17:33:42.185Z,13.12
2017-09-25T17:36:10.629Z,13.09
2017-09-25T17:38:39.034Z,12.98
2017-09-25T17:41:07.420Z,12.60
2017-09-25T17:43:35.930Z,12.36
2017-09-25T17:46:04.435Z,12.47
2017-09-25T17:48:32.863Z,12.46
2017-09-25T17:51:01.238Z,12.31
2017-09-25T17:53:29.623Z,12.16
2017-09-25T17:55:58.035Z,12.00
2017-09-25T17:58:26.423Z,11.95
2017-09-25T18:00:54.971Z,11.98
2017-09-25T18:03:23.352Z,12.03
2017-09-25T18:05:51.715Z,12.01
2017-09-25T18:08:20.113Z,12.10
2017-09-25T18:10:48.470Z,12.28
2017-09-25T18:13:16.827Z,12.29
2017-09-25T18:15:45.193Z,12.28
2017-09-25T18:18:13.579Z,12.56
2017-09-25T18:20:41.946Z,12.43
2017-09-25T18:23:10.318Z,12.47
2017-09-25T18:25:39.135Z,12.31
2017-09-25T18:28:07.503Z,12.44
2017-09-25T18:33:17.497Z,12.42
2017-09-25T18:35:56.335Z,12.69
2017-09-25T18:38:25.026Z,12.56
2017-09-25T18:40:53.712Z,12.51
2017-09-25T18:43:22.255Z,12.38
2017-09-25T18:45:50.841Z,12.38
2017-09-25T18:48:20.424Z,12.40
2017-09-25T18:50:48.871Z,12.54
2017-09-25T18:53:17.354Z,12.52
2017-09-25T18:55:45.715Z,12.53
2017-09-25T18:58:14.079Z,12.60
2017-09-25T19:00:42.431Z,12.54
2017-09-25T19:03:10.805Z,12.56
2017-09-25T19:05:39.224Z,12.46
2017-09-25T19:08:07.613Z,12.37
2017-09-25T19:10:36.045Z,12.31
2017-09-25T19:13:04.916Z,12.27
2017-09-25T19:15:33.270Z,12.24
2017-09-25T19:18:01.873Z,12.17
2017-09-25T19:20:30.235Z,12.07
2017-09-25T19:22:58.600Z,12.00
2017-09-25T19:25:26.959Z,11.75
2017-09-25T19:27:55.331Z,11.65
2017-09-25T19:30:23.687Z,11.59
2017-09-25T19:32:52.047Z,11.49
2017-09-25T19:35:20.403Z,11.45
2017-09-25T19:37:48.758Z,11.43
2017-09-25T19:40:17.255Z,11.53
2017-09-25T19:42:45.623Z,11.32
2017-09-25T19:45:13.997Z,11.48
2017-09-25T19:47:47.736Z,11.46
2017-09-25T19:50:18.613Z,11.49
2017-09-25T19:52:47.886Z,11.41
2017-09-25T19:55:17.623Z,11.31
2017-09-25T19:57:49.390Z,11.28
2017-09-25T20:00:17.965Z,11.22
2017-09-25T20:02:46.319Z,11.13
2017-09-25T20:05:14.776Z,11.16
2017-09-25T20:07:43.159Z,11.19
2017-09-25T20:10:11.522Z,11.15
2017-09-25T20:12:40.041Z,11.23
2017-09-25T20:15:13.933Z,11.17
2017-09-25T20:17:42.800Z,11.11
2017-09-25T20:20:11.153Z,11.14
2017-09-25T20:22:39.508Z,11.23
2017-09-25T20:25:07.883Z,11.34
2017-09-25T20:27:36.281Z,11.38
2017-09-25T20:30:04.872Z,11.49
2017-09-25T20:32:33.290Z,11.49
2017-09-25T20:35:01.991Z,11.59
2017-09-25T20:37:32.952Z,11.65
2017-09-25T20:40:01.374Z,11.51
2017-09-25T20:42:49.568Z,11.75
2017-09-25T20:45:18.248Z,11.76
2017-09-25T20:47:46.616Z,11.74
2017-09-25T20:50:14.995Z,11.78
2017-09-25T20:52:43.343Z,11.82
2017-09-25T20:55:11.698Z,11.82
2017-09-25T20:57:40.972Z,11.76
2017-09-25T21:00:09.334Z,11.83
2017-09-25T21:02:37.687Z,11.66
2017-09-25T21:05:06.051Z,11.68
2017-09-25T21:07:34.415Z,11.56
2017-09-25T21:10:02.772Z,11.57
2017-09-25T21:12:31.121Z,11.57
2017-09-25T21:14:59.502Z,11.63
2017-09-25T21:17:27.859Z,11.63
2017-09-25T21:19:56.252Z,11.57
2017-09-25T21:22:24.623Z,11.48
2017-09-25T21:24:53.235Z,11.70
2017-09-25T21:27:25.118Z,11.74
2017-09-25T21:29:53.475Z,11.87
2017-09-25T21:32:21.825Z,11.85
2017-09-25T21:34:50.188Z,11.88
2017-09-25T21:37:18.543Z,11.82
2017-09-25T21:39:46.905Z,11.90
2017-09-25T21:42:15.263Z,11.87
2017-09-25T21:44:43.621Z,11.76
2017-09-25T21:47:11.975Z,11.69
2017-09-25T21:49:42.222Z,11.66
2017-09-25T21:52:10.574Z,11.57
2017-09-25T21:54:39.587Z,11.45
2017-09-25T21:57:07.948Z,11.38
2017-09-25T21:59:36.342Z,11.41
2017-09-25T22:02:04.698Z,11.59
2017-09-25T22:04:33.063Z,11.57
2017-09-25T22:07:01.495Z,11.46
2017-09-25T22:09:29.884Z,11.36
2017-09-25T22:11:58.247Z,11.26
2017-09-25T22:14:26.599Z,11.12
2017-09-25T22:16:55.143Z,11.09
2017-09-25T22:19:23.499Z,11.07
2017-09-25T22:21:51.865Z,10.91
2017-09-25T22:24:20.226Z,10.76
2017-09-25T22:26:48.599Z,10.82
2017-09-25T22:29:16.967Z,10.71
2017-09-25T22:31:45.339Z,10.65
2017-09-25T22:34:13.713Z,10.63
2017-09-25T22:36:42.106Z,10.51
2017-09-25T22:39:10.468Z,10.40
2017-09-25T22:41:38.819Z,10.35
2017-09-25T22:44:07.225Z,10.28
2017-09-25T22:46:35.587Z,10.34
2017-09-25T22:49:03.939Z,10.17
2017-09-25T22:51:32.299Z,10.16
2017-09-25T22:54:01.567Z,10.09
2017-09-25T22:56:29.964Z,9.97
2017-09-25T22:58:58.316Z,9.88
2017-09-25T23:01:26.693Z,9.80
2017-09-25T23:04:04.995Z,9.79
2017-09-25T23:06:33.347Z,9.71
2017-09-25T23:09:01.728Z,9.70
2017-09-25T23:11:30.112Z,9.75
2017-09-25T23:13:58.495Z,9.63
2017-09-25T23:16:26.871Z,9.56
2017-09-25T23:18:55.219Z,9.50
2017-09-25T23:21:23.586Z,9.44
2017-09-25T23:23:51.974Z,9.31
2017-09-25T23:26:20.319Z,9.29
2017-09-25T23:28:48.714Z,9.21
2017-09-25T23:31:17.931Z,9.13
2017-09-25T23:33:46.299Z,9.10
2017-09-25T23:36:14.641Z,9.08
2017-09-25T23:38:42.986Z,9.03
2017-09-25T23:41:11.344Z,8.94
2017-09-25T23:43:39.696Z,8.91
2017-09-25T23:46:08.038Z,8.85
2017-09-25T23:48:36.440Z,8.79
2017-09-25T23:51:04.793Z,8.68
2017-09-25T23:53:33.140Z,8.73
2017-09-25T23:56:01.482Z,8.64
2017-09-25T23:58:29.967Z,8.62
